Time;durP1;ratioP1;P1;durP2;ratioP2;P2;SDS_P1;SDS_P2;PMS_P1;PMS_P2;Temp;Humidity;BMP_temperature;BMP_pressure;BME280_temperature;BME280_humidity;BME280_pressure;Samples;Min_cycle;Max_cycle;Signal;HPM_P1;HPM_P2
2023/08/14 00:01:08;;;;;;;7.30;2.80;;;17.30;99.90;;;;;;4978479;28;20210;-91
2023/08/14 00:03:34;;;;;;;5.82;2.63;;;17.30;99.90;;;;;;4978776;28;20184;-92
2023/08/14 00:06:00;;;;;;;4.90;2.30;;;17.30;99.90;;;;;;4978299;28;20176;-92
2023/08/14 00:08:26;;;;;;;7.03;2.58;;;17.20;99.90;;;;;;4978318;28;20180;-92
2023/08/14 00:11:06;;;;;;;5.45;2.63;;;17.10;99.90;;;;;;4978386;28;20210;-92
2023/08/14 00:13:48;;;;;;;5.10;2.30;;;17.10;99.90;;;;;;4978790;28;20179;-92
2023/08/14 00:16:15;;;;;;;5.07;2.35;;;17.00;99.90;;;;;;4979600;28;20180;-92
2023/08/14 00:18:41;;;;;;;8.27;3.00;;;17.10;99.90;;;;;;4982125;28;20180;-93
2023/08/14 00:21:07;;;;;;;5.72;2.28;;;17.00;99.90;;;;;;4982306;28;20219;-93
2023/08/14 00:23:32;;;;;;;4.82;2.30;;;17.00;99.90;;;;;;4989952;28;20230;-92
2023/08/14 00:25:58;;;;;;;5.95;2.50;;;16.90;99.90;;;;;;5001786;28;20179;-91
2023/08/14 00:30:56;;;;;;;5.20;2.58;;;17.00;99.90;;;;;;4972279;28;20243;-93
2023/08/14 00:33:21;;;;;;;5.32;2.75;;;17.00;99.90;;;;;;4962617;28;20181;-93
2023/08/14 00:35:47;;;;;;;7.03;3.00;;;17.00;99.90;;;;;;4963136;28;20271;-93
2023/08/14 00:38:13;;;;;;;5.70;2.85;;;17.00;99.90;;;;;;4973925;28;20202;-92
2023/08/14 00:40:52;;;;;;;7.38;3.00;;;17.00;99.90;;;;;;4999575;28;20176;-92
2023/08/14 00:43:21;;;;;;;7.25;2.60;;;17.00;99.90;;;;;;4982097;28;20201;-93
2023/08/14 00:45:48;;;;;;;4.80;2.67;;;17.00;99.90;;;;;;4981585;28;20610;-92
2023/08/14 00:48:14;;;;;;;5.65;3.00;;;16.90;99.90;;;;;;4981998;28;20226;-92
2023/08/14 00:50:42;;;;;;;5.65;3.00;;;17.00;99.90;;;;;;4981460;28;20176;-92
2023/08/14 00:53:08;;;;;;;4.43;2.60;;;16.90;99.90;;;;;;4981538;28;20254;-92
2023/08/14 00:55:34;;;;;;;8.45;2.97;;;16.90;99.90;;;;;;4981957;28;20614;-92
2023/08/14 00:58:00;;;;;;;6.25;2.88;;;16.90;99.90;;;;;;4981588;28;20183;-91
2023/08/14 01:00:28;;;;;;;5.40;2.92;;;16.80;99.90;;;;;;4981232;28;20275;-90
2023/08/14 01:02:54;;;;;;;6.55;2.92;;;16.80;99.90;;;;;;4981951;28;20262;-92
2023/08/14 01:05:20;;;;;;;5.13;2.78;;;16.80;99.90;;;;;;4981468;28;20207;-92
2023/08/14 01:07:46;;;;;;;4.18;2.78;;;16.70;99.90;;;;;;4981324;28;20215;-91
2023/08/14 01:10:12;;;;;;;8.27;3.22;;;16.70;99.90;;;;;;4981411;28;20195;-91
2023/08/14 01:13:05;;;;;;;6.05;2.55;;;16.70;99.90;;;;;;4981341;28;20240;-92
2023/08/14 01:15:35;;;;;;;9.23;3.20;;;16.70;99.90;;;;;;4981214;28;20168;-92
2023/08/14 01:18:03;;;;;;;6.75;2.78;;;16.70;99.90;;;;;;4981158;28;20179;-92
2023/08/14 01:20:32;;;;;;;6.25;2.80;;;16.70;99.90;;;;;;4981162;28;20176;-92
2023/08/14 01:23:23;;;;;;;5.30;2.78;;;16.70;99.90;;;;;;4981291;28;20208;-92
2023/08/14 01:25:52;;;;;;;4.43;2.58;;;16.60;99.90;;;;;;4981267;28;20183;-91
2023/08/14 01:28:18;;;;;;;5.75;2.60;;;16.60;99.90;;;;;;4980819;28;20184;-91
2023/08/14 01:30:47;;;;;;;7.75;2.95;;;16.60;99.90;;;;;;4980865;28;20228;-92
2023/08/14 01:33:13;;;;;;;6.50;2.60;;;16.60;99.90;;;;;;4998403;28;20218;-93
2023/08/14 01:35:54;;;;;;;5.93;2.78;;;16.60;99.90;;;;;;4981104;28;20179;-91
2023/08/14 01:38:45;;;;;;;3.88;2.58;;;16.70;99.90;;;;;;4980848;28;20191;-92
2023/08/14 01:41:41;;;;;;;4.15;2.20;;;16.70;99.90;;;;;;4980866;28;20289;-92
2023/08/14 01:44:11;;;;;;;14.13;2.47;;;16.70;99.90;;;;;;4977780;28;20259;-91
2023/08/14 01:46:42;;;;;;;3.92;2.45;;;16.70;99.90;;;;;;4980893;28;20212;-91
2023/08/14 01:49:10;;;;;;;4.93;2.67;;;16.60;99.90;;;;;;4980609;28;20258;-89
2023/08/14 01:51:37;;;;;;;6.43;2.55;;;16.60;99.90;;;;;;4980575;28;20234;-92
2023/08/14 01:54:03;;;;;;;6.25;2.40;;;16.50;99.90;;;;;;4980631;28;20172;-92
2023/08/14 01:56:29;;;;;;;8.57;2.70;;;16.50;99.90;;;;;;4980427;28;20188;-91
2023/08/14 01:58:55;;;;;;;4.43;2.20;;;16.50;99.90;;;;;;4980367;28;20240;-92
2023/08/14 02:01:47;;;;;;;6.63;2.70;;;16.50;99.90;;;;;;4998008;28;20203;-92
2023/08/14 02:04:13;;;;;;;5.32;2.40;;;16.50;99.90;;;;;;4980701;28;20172;-92
2023/08/14 02:06:38;;;;;;;4.40;2.30;;;16.40;99.90;;;;;;4980605;28;20183;-92
2023/08/14 02:09:04;;;;;;;5.80;2.80;;;16.40;99.90;;;;;;4962419;28;20192;-92
2023/08/14 02:11:37;;;;;;;8.65;2.70;;;16.20;99.90;;;;;;4961183;28;20180;-92
2023/08/14 02:14:03;;;;;;;5.22;2.53;;;16.20;99.90;;;;;;4961287;28;20280;-92
2023/08/14 02:16:29;;;;;;;3.70;2.25;;;16.20;99.90;;;;;;4960952;28;20216;-92
2023/08/14 02:18:54;;;;;;;3.25;2.38;;;16.20;99.90;;;;;;4960561;28;20228;-92
2023/08/14 02:21:20;;;;;;;3.78;2.53;;;16.20;99.90;;;;;;4960676;28;20646;-92
2023/08/14 02:23:46;;;;;;;5.57;2.55;;;16.10;99.90;;;;;;4961033;28;20188;-93
2023/08/14 02:26:11;;;;;;;8.23;2.50;;;16.10;99.90;;;;;;4960640;28;20259;-92
2023/08/14 02:28:37;;;;;;;5.47;2.63;;;16.10;99.90;;;;;;4977864;28;20260;-92
2023/08/14 02:31:05;;;;;;;7.45;2.35;;;16.00;99.90;;;;;;4961007;28;20264;-92
2023/08/14 02:33:31;;;;;;;4.20;2.42;;;16.00;99.90;;;;;;4960866;28;20184;-92
2023/08/14 02:35:56;;;;;;;3.75;2.50;;;16.10;99.90;;;;;;4960529;28;20649;-91
2023/08/14 02:38:22;;;;;;;4.95;2.65;;;16.10;99.90;;;;;;4972937;28;20238;-92
2023/08/14 02:40:57;;;;;;;4.65;2.20;;;16.10;99.90;;;;;;4979285;28;20240;-93
2023/08/14 02:43:23;;;;;;;6.00;2.20;;;16.10;99.90;;;;;;4979654;28;20214;-91
2023/08/14 02:45:48;;;;;;;4.80;2.33;;;16.00;99.90;;;;;;4979264;28;20215;-92
2023/08/14 02:48:14;;;;;;;4.00;2.45;;;16.10;99.90;;;;;;4979190;28;20183;-92
2023/08/14 02:50:40;;;;;;;5.15;2.38;;;16.00;99.90;;;;;;4978746;28;20610;-91
2023/08/14 02:53:06;;;;;;;3.83;2.35;;;16.00;99.90;;;;;;4979490;28;20187;-92
2023/08/14 02:55:32;;;;;;;5.90;2.38;;;16.00;99.90;;;;;;4996731;28;20168;-92
2023/08/14 02:57:58;;;;;;;3.28;2.33;;;16.10;99.90;;;;;;4979319;28;20275;-91
2023/08/14 03:00:24;;;;;;;8.13;2.53;;;16.10;99.90;;;;;;4979204;28;20271;-91
2023/08/14 03:02:53;;;;;;;5.88;2.88;;;16.10;99.90;;;;;;4979105;28;20216;-92
2023/08/14 03:05:19;;;;;;;5.00;2.40;;;16.00;99.90;;;;;;4979711;28;20176;-91
2023/08/14 03:07:46;;;;;;;3.95;2.13;;;15.90;99.90;;;;;;4979118;28;20186;-92
2023/08/14 03:10:11;;;;;;;3.95;2.05;;;15.90;99.90;;;;;;4979381;28;20184;-91
2023/08/14 03:12:46;;;;;;;3.15;2.05;;;15.90;99.90;;;;;;4973249;28;20199;-92
2023/08/14 03:15:12;;;;;;;4.35;2.47;;;15.90;99.90;;;;;;4959694;28;20172;-90
2023/08/14 03:17:38;;;;;;;4.57;2.67;;;15.90;99.90;;;;;;4959765;28;20275;-91
2023/08/14 03:20:04;;;;;;;9.52;3.08;;;15.80;99.90;;;;;;4959674;28;20173;-91
2023/08/14 03:22:41;;;;;;;3.17;2.40;;;15.80;99.90;;;;;;4959573;28;20216;-91
2023/08/14 03:25:06;;;;;;;3.72;2.50;;;15.80;99.90;;;;;;4959829;28;20180;-91
2023/08/14 03:27:32;;;;;;;7.60;2.58;;;15.90;99.90;;;;;;4959765;28;20515;-91
2023/08/14 03:29:58;;;;;;;3.67;2.00;;;16.00;99.90;;;;;;4959607;28;20224;-91
2023/08/14 03:32:33;;;;;;;5.80;2.40;;;16.00;99.90;;;;;;4959565;28;20191;-90
2023/08/14 03:34:59;;;;;;;11.43;2.20;;;16.00;99.90;;;;;;4959839;28;20180;-91
2023/08/14 03:37:24;;;;;;;3.80;2.17;;;16.00;99.90;;;;;;4959494;28;20204;-91
2023/08/14 03:39:50;;;;;;;3.80;2.20;;;16.00;99.90;;;;;;4959289;28;20607;-91
2023/08/14 03:42:16;;;;;;;7.10;2.55;;;16.00;99.90;;;;;;4959251;28;20224;-91
2023/08/14 03:44:42;;;;;;;4.63;2.00;;;16.00;99.90;;;;;;4959663;28;20180;-91
2023/08/14 03:47:08;;;;;;;3.83;2.38;;;16.00;99.90;;;;;;4959269;28;20211;-91
2023/08/14 03:49:33;;;;;;;10.13;2.58;;;16.00;99.90;;;;;;4959265;28;20176;-91
2023/08/14 03:52:01;;;;;;;4.45;2.53;;;15.90;99.90;;;;;;4957992;28;20181;-90
2023/08/14 03:54:27;;;;;;;8.60;2.40;;;15.80;99.90;;;;;;4959346;28;20224;-90
2023/08/14 03:56:52;;;;;;;5.20;2.22;;;15.80;99.90;;;;;;4959157;28;20208;-91
2023/08/14 03:59:18;;;;;;;8.25;2.40;;;15.80;99.90;;;;;;4959088;28;20192;-90
2023/08/14 04:01:45;;;;;;;6.72;2.50;;;15.80;99.90;;;;;;4958802;28;20212;-90
2023/08/14 04:04:10;;;;;;;4.57;2.47;;;15.80;99.90;;;;;;4976476;28;20164;-90
2023/08/14 04:06:37;;;;;;;5.60;2.15;;;15.80;99.90;;;;;;4976521;28;20231;-89
2023/08/14 04:09:04;;;;;;;4.85;2.20;;;15.80;99.90;;;;;;4958971;28;20177;-89
2023/08/14 04:11:30;;;;;;;4.43;2.40;;;15.80;99.90;;;;;;4958834;28;20503;-90
2023/08/14 04:13:56;;;;;;;7.28;2.78;;;15.80;99.90;;;;;;4964944;28;20179;-90
2023/08/14 04:16:22;;;;;;;6.60;2.53;;;15.90;99.90;;;;;;4978223;28;20176;-90
2023/08/14 04:18:48;;;;;;;3.47;2.42;;;15.90;99.90;;;;;;4978209;28;20227;-90
2023/08/14 04:21:14;;;;;;;8.73;2.63;;;15.80;99.90;;;;;;4978170;28;20331;-90
2023/08/14 04:23:39;;;;;;;3.72;2.50;;;15.80;99.90;;;;;;4978273;28;20247;-90
2023/08/14 04:26:05;;;;;;;3.75;2.42;;;15.80;99.90;;;;;;4978030;28;20214;-91
2023/08/14 04:28:31;;;;;;;3.25;2.47;;;15.80;99.90;;;;;;4977493;28;20642;-92
2023/08/14 04:30:56;;;;;;;4.43;2.13;;;15.80;99.90;;;;;;4958136;28;20235;-90
2023/08/14 04:33:22;;;;;;;4.25;2.67;;;15.90;99.90;;;;;;4959363;28;20220;-90
2023/08/14 04:35:48;;;;;;;5.00;2.38;;;15.90;99.90;;;;;;4959075;28;20176;-90
2023/08/14 04:38:14;;;;;;;4.25;2.50;;;15.90;99.90;;;;;;4958991;28;20184;-91
2023/08/14 04:40:39;;;;;;;5.22;2.38;;;15.80;99.90;;;;;;4958604;28;20585;-90
2023/08/14 04:43:10;;;;;;;6.15;2.38;;;15.80;99.90;;;;;;4958649;28;20294;-91
2023/08/14 04:45:36;;;;;;;6.25;2.15;;;15.80;99.90;;;;;;4959606;28;20639;-90
2023/08/14 04:48:02;;;;;;;3.88;2.28;;;15.80;99.90;;;;;;4958984;28;20181;-91
2023/08/14 04:50:28;;;;;;;4.72;2.60;;;15.90;99.90;;;;;;4958376;28;20176;-90
2023/08/14 04:52:55;;;;;;;6.30;2.60;;;15.90;99.90;;;;;;4975680;28;20516;-90
2023/08/14 04:55:23;;;;;;;7.55;2.55;;;15.90;99.90;;;;;;4958655;28;21022;-89
2023/08/14 04:57:49;;;;;;;7.00;2.85;;;15.90;99.90;;;;;;4958396;28;20616;-89
2023/08/14 05:00:15;;;;;;;5.57;2.10;;;16.00;99.90;;;;;;4958637;28;20187;-89
2023/08/14 05:02:41;;;;;;;6.30;2.15;;;16.00;99.90;;;;;;4960269;28;20286;-91
2023/08/14 05:05:07;;;;;;;8.40;2.20;;;16.10;99.90;;;;;;4962071;28;20196;-91
2023/08/14 05:07:33;;;;;;;2.78;2.22;;;16.10;99.90;;;;;;4962302;28;20184;-91
2023/08/14 05:09:59;;;;;;;3.70;2.20;;;16.20;99.90;;;;;;4962242;28;20188;-91
2023/08/14 05:12:24;;;;;;;5.68;2.60;;;16.30;99.90;;;;;;4957876;29;20185;-91
2023/08/14 05:14:52;;;;;;;6.75;2.35;;;16.30;99.90;;;;;;4943036;29;20260;-91
2023/08/14 05:17:18;;;;;;;4.45;2.10;;;16.40;99.90;;;;;;4942881;29;20624;-91
2023/08/14 05:19:44;;;;;;;3.58;2.25;;;16.50;99.90;;;;;;4959978;29;20173;-90
2023/08/14 05:22:10;;;;;;;4.68;2.33;;;16.60;99.90;;;;;;4942729;29;20236;-91
2023/08/14 05:24:36;;;;;;;7.40;2.30;;;16.60;99.90;;;;;;4943105;29;20212;-91
2023/08/14 05:27:02;;;;;;;5.78;2.03;;;16.70;99.90;;;;;;4942738;29;20189;-91
2023/08/14 05:29:28;;;;;;;4.97;2.10;;;16.70;99.90;;;;;;4949864;28;20595;-90
2023/08/14 05:31:53;;;;;;;4.35;2.08;;;16.70;99.90;;;;;;4961832;28;20184;-91
2023/08/14 05:34:19;;;;;;;2.75;2.30;;;16.80;99.90;;;;;;4962263;28;20276;-91
2023/08/14 05:36:45;;;;;;;9.85;2.53;;;16.90;99.90;;;;;;4962718;28;20580;-90
2023/08/14 05:39:10;;;;;;;6.53;2.60;;;17.00;99.90;;;;;;4962646;28;20173;-91
2023/08/14 05:41:36;;;;;;;5.00;2.42;;;17.10;99.90;;;;;;4962125;28;20200;-93
2023/08/14 05:44:03;;;;;;;7.18;2.47;;;17.20;99.90;;;;;;4976784;28;20188;-91
2023/08/14 05:46:29;;;;;;;4.70;2.20;;;17.20;99.90;;;;;;4981026;28;20250;-92
2023/08/14 05:48:55;;;;;;;5.30;2.33;;;17.30;99.90;;;;;;4972833;28;20529;-92
2023/08/14 05:51:20;;;;;;;4.40;2.22;;;17.30;99.90;;;;;;4961237;28;20185;-93
2023/08/14 05:53:48;;;;;;;5.60;2.50;;;17.40;99.90;;;;;;4961332;28;20184;-93
2023/08/14 05:56:14;;;;;;;4.28;2.20;;;17.40;99.90;;;;;;4961249;28;20216;-92
2023/08/14 05:58:39;;;;;;;4.38;2.35;;;17.50;99.90;;;;;;4961401;28;20211;-93
2023/08/14 06:01:05;;;;;;;4.05;2.65;;;17.50;99.90;;;;;;4961302;28;20180;-93
2023/08/14 06:03:38;;;;;;;7.03;2.22;;;17.60;99.90;;;;;;4961198;28;20184;-93
2023/08/14 06:06:04;;;;;;;4.80;2.65;;;17.70;99.90;;;;;;4961296;28;20184;-93
2023/08/14 06:08:29;;;;;;;6.90;2.42;;;17.80;99.90;;;;;;4961613;28;20188;-94
2023/08/14 06:10:55;;;;;;;6.63;2.50;;;17.90;99.90;;;;;;4961224;28;20181;-92
2023/08/14 06:13:22;;;;;;;13.57;2.90;;;18.00;99.90;;;;;;4960366;28;20724;-93
2023/08/14 06:15:48;;;;;;;10.30;2.85;;;18.10;99.90;;;;;;4960647;28;20173;-93
2023/08/14 06:18:13;;;;;;;4.15;2.35;;;18.20;99.90;;;;;;4960898;28;20187;-93
2023/08/14 06:20:39;;;;;;;6.25;2.42;;;18.30;99.90;;;;;;4960534;28;20211;-93
2023/08/14 06:23:08;;;;;;;6.72;2.33;;;18.40;99.90;;;;;;4960468;28;20216;-92
2023/08/14 06:25:34;;;;;;;7.50;2.60;;;18.60;99.90;;;;;;4960572;28;20611;-93
2023/08/14 06:27:59;;;;;;;9.27;2.47;;;18.70;99.90;;;;;;4960610;28;20181;-94
2023/08/14 06:30:25;;;;;;;6.10;2.40;;;18.90;99.90;;;;;;4945652;29;20232;-93
2023/08/14 06:32:51;;;;;;;6.30;2.60;;;19.00;99.90;;;;;;4941285;29;20181;-93
2023/08/14 06:35:17;;;;;;;6.60;2.50;;;19.20;99.90;;;;;;4941408;29;20181;-94
2023/08/14 06:37:43;;;;;;;6.43;2.40;;;19.30;99.90;;;;;;4941234;29;20273;-93
2023/08/14 06:40:09;;;;;;;4.50;2.63;;;19.30;99.90;;;;;;4941639;29;20233;-93
2023/08/14 06:42:36;;;;;;;5.90;2.17;;;19.50;99.90;;;;;;4939955;29;20224;-94
2023/08/14 06:45:04;;;;;;;7.40;2.42;;;19.70;99.90;;;;;;4942444;29;20177;-95
2023/08/14 06:47:29;;;;;;;4.65;2.33;;;19.70;99.90;;;;;;4942388;29;20181;-95
2023/08/14 06:49:55;;;;;;;3.50;2.00;;;19.80;99.90;;;;;;4942510;29;20188;-94
2023/08/14 06:52:21;;;;;;;3.40;2.03;;;19.90;99.90;;;;;;4942345;28;20266;-93
2023/08/14 06:54:49;;;;;;;4.70;2.42;;;20.00;99.90;;;;;;4961435;28;20180;-93
2023/08/14 06:57:15;;;;;;;6.03;1.92;;;20.10;99.90;;;;;;4962123;28;20175;-96
2023/08/14 06:59:41;;;;;;;8.25;2.33;;;20.40;99.90;;;;;;4962714;28;20176;-94
2023/08/14 07:02:09;;;;;;;3.40;1.90;;;20.70;99.90;;;;;;4961091;28;20215;-94
2023/08/14 07:04:42;;;;;;;8.10;2.20;;;20.90;99.90;;;;;;4962125;28;20180;-95
2023/08/14 07:07:08;;;;;;;4.15;2.00;;;21.00;99.90;;;;;;4961630;28;20184;-94
2023/08/14 07:09:33;;;;;;;5.10;1.92;;;21.10;99.90;;;;;;4959891;28;20180;-94
2023/08/14 07:11:59;;;;;;;5.97;2.10;;;21.30;99.90;;;;;;4944127;28;20185;-96
2023/08/14 07:14:27;;;;;;;6.15;1.98;;;21.40;99.90;;;;;;4960301;28;20199;-95
2023/08/14 07:16:53;;;;;;;4.53;2.00;;;21.60;99.90;;;;;;4959913;28;20173;-95
2023/08/14 07:19:18;;;;;;;3.92;2.20;;;21.80;99.90;;;;;;4978383;28;20510;-91
2023/08/14 07:21:45;;;;;;;5.03;2.30;;;21.90;99.90;;;;;;4959818;28;20587;-94
2023/08/14 07:24:12;;;;;;;7.60;1.95;;;21.90;99.90;;;;;;4960085;28;20192;-92
2023/08/14 07:26:39;;;;;;;5.55;2.28;;;21.80;99.90;;;;;;4959522;28;20177;-95
2023/08/14 07:29:05;;;;;;;4.20;2.15;;;22.00;99.90;;;;;;4963536;28;20223;-95
2023/08/14 07:31:30;;;;;;;4.93;2.35;;;22.00;99.90;;;;;;4978351;28;20246;-94
2023/08/14 07:33:56;;;;;;;5.72;2.17;;;22.20;99.90;;;;;;4978395;28;20180;-92
2023/08/14 07:36:23;;;;;;;4.07;1.90;;;22.20;99.90;;;;;;4978629;28;20175;-96
2023/08/14 07:38:49;;;;;;;5.43;1.88;;;22.20;99.90;;;;;;4978743;28;20184;-96
2023/08/14 07:41:15;;;;;;;4.78;1.90;;;22.30;99.90;;;;;;4996410;28;20226;-95
2023/08/14 07:43:41;;;;;;;8.35;1.88;;;22.30;99.90;;;;;;4979180;28;20633;-95
2023/08/14 07:46:07;;;;;;;4.03;1.70;;;22.30;99.90;;;;;;4979105;28;20176;-96
2023/08/14 07:48:33;;;;;;;7.68;1.80;;;22.30;99.90;;;;;;4978565;28;20682;-93
2023/08/14 07:50:59;;;;;;;4.05;1.90;;;22.30;99.90;;;;;;4977967;28;20207;-92
2023/08/14 07:53:25;;;;;;;4.25;1.63;;;22.40;99.90;;;;;;4978446;28;20270;-91
2023/08/14 07:55:50;;;;;;;4.57;1.92;;;22.40;99.90;;;;;;4978666;28;20230;-92
2023/08/14 07:58:18;;;;;;;6.40;1.80;;;22.50;99.90;;;;;;4978338;28;20179;-91
2023/08/14 08:00:44;;;;;;;3.13;1.92;;;22.70;99.90;;;;;;4978196;28;20211;-92
2023/08/14 08:03:09;;;;;;;4.90;1.60;;;22.80;99.90;;;;;;4978663;28;20219;-94
2023/08/14 08:05:37;;;;;;;4.68;1.77;;;23.00;99.90;;;;;;4978416;28;20187;-93
2023/08/14 08:08:03;;;;;;;5.00;1.80;;;23.10;99.90;;;;;;4978297;28;20570;-88
2023/08/14 08:10:30;;;;;;;4.53;1.90;;;23.20;99.90;;;;;;4978851;28;20187;-96
2023/08/14 08:12:56;;;;;;;3.40;1.70;;;23.30;99.90;;;;;;4978470;28;20210;-93
2023/08/14 08:15:24;;;;;;;4.72;1.55;;;23.30;99.90;;;;;;4978277;28;20211;-93
2023/08/14 08:17:49;;;;;;;4.38;1.98;;;23.30;99.90;;;;;;4978227;28;20606;-92
2023/08/14 08:20:15;;;;;;;6.97;1.70;;;23.40;99.90;;;;;;4978320;28;20192;-91
2023/08/14 08:22:41;;;;;;;4.70;1.60;;;23.40;99.90;;;;;;4991792;28;20216;-92
2023/08/14 08:25:07;;;;;;;3.28;1.55;;;23.50;99.90;;;;;;4975666;28;20202;-90
2023/08/14 08:27:35;;;;;;;2.55;1.80;;;23.50;99.90;;;;;;4958347;28;20477;-91
2023/08/14 08:30:02;;;;;;;7.68;1.73;;;23.60;99.90;;;;;;4946394;29;20663;-90
2023/08/14 08:32:27;;;;;;;6.13;1.70;;;23.70;99.90;;;;;;4939030;29;20559;-91
2023/08/14 08:34:54;;;;;;;3.55;1.77;;;23.90;99.90;;;;;;4939491;29;20185;-92
2023/08/14 08:37:20;;;;;;;3.72;1.67;;;24.10;99.90;;;;;;4940250;29;20197;-92
2023/08/14 08:39:46;;;;;;;4.15;1.60;;;24.30;99.90;;;;;;4942753;29;20181;-91
2023/08/14 08:42:12;;;;;;;7.57;1.80;;;24.40;99.90;;;;;;4943115;29;20209;-90
2023/08/14 08:44:45;;;;;;;3.85;1.88;;;24.50;99.90;;;;;;4942851;29;20237;-94
2023/08/14 08:47:15;;;;;;;3.47;1.60;;;24.60;99.90;;;;;;4944198;29;20272;-93
2023/08/14 08:49:41;;;;;;;5.05;1.60;;;24.80;99.90;;;;;;4944520;29;20232;-91
2023/08/14 08:52:09;;;;;;;3.55;1.67;;;24.90;99.90;;;;;;4942628;29;20177;-93
2023/08/14 08:54:39;;;;;;;3.10;1.60;;;24.90;99.90;;;;;;4961060;28;20643;-91
2023/08/14 08:57:05;;;;;;;2.60;1.70;;;24.90;99.90;;;;;;4962206;28;20169;-91
2023/08/14 08:59:32;;;;;;;5.43;1.50;;;24.90;99.90;;;;;;4961905;28;20173;-92
2023/08/14 09:01:58;;;;;;;4.25;1.40;;;25.10;99.90;;;;;;4960854;28;20230;-91
2023/08/14 09:04:27;;;;;;;3.13;1.55;;;25.20;99.90;;;;;;4962297;28;20577;-92
2023/08/14 09:06:53;;;;;;;3.22;1.60;;;25.40;99.90;;;;;;4979553;28;20168;-93
2023/08/14 09:09:20;;;;;;;2.90;1.60;;;25.60;99.90;;;;;;4962476;28;20650;-91
2023/08/14 09:11:45;;;;;;;5.88;1.55;;;25.60;99.90;;;;;;4962456;28;20189;-92
2023/08/14 09:14:15;;;;;;;4.82;1.58;;;25.70;99.90;;;;;;4963522;28;20292;-95
2023/08/14 09:16:41;;;;;;;3.63;1.50;;;25.80;99.90;;;;;;4962909;28;20188;-91
2023/08/14 09:19:07;;;;;;;3.78;1.60;;;25.80;99.90;;;;;;4957761;28;20446;-92
2023/08/14 09:21:33;;;;;;;3.50;1.33;;;25.80;99.90;;;;;;4954681;28;20270;-93
2023/08/14 09:23:59;;;;;;;5.18;1.92;;;25.90;99.90;;;;;;4960550;28;20180;-93
2023/08/14 09:26:31;;;;;;;3.10;1.55;;;25.80;99.90;;;;;;4962480;28;20183;-94
2023/08/14 09:28:57;;;;;;;4.70;1.58;;;25.70;99.90;;;;;;4964335;28;20654;-95
2023/08/14 09:31:24;;;;;;;2.75;1.40;;;25.70;99.90;;;;;;4991674;28;20185;-89
2023/08/14 09:33:49;;;;;;;2.85;1.58;;;25.70;99.90;;;;;;4969668;28;20192;-94
2023/08/14 09:36:17;;;;;;;2.47;1.63;;;25.60;99.90;;;;;;4961412;28;20981;-92
2023/08/14 09:38:43;;;;;;;6.75;2.00;;;25.70;99.90;;;;;;4962039;28;20216;-93
2023/08/14 09:41:09;;;;;;;5.22;1.50;;;25.80;99.90;;;;;;4979321;28;20187;-92
2023/08/14 09:43:35;;;;;;;2.92;1.50;;;25.70;99.90;;;;;;4980080;28;20188;-92
2023/08/14 09:46:04;;;;;;;3.55;1.50;;;25.60;99.90;;;;;;4980723;28;20176;-91
2023/08/14 09:48:45;;;;;;;4.78;1.65;;;25.50;99.90;;;;;;4980845;28;20184;-94
2023/08/14 09:51:13;;;;;;;6.50;1.90;;;25.40;99.90;;;;;;4981342;28;20260;-95
2023/08/14 09:53:49;;;;;;;5.95;1.60;;;25.30;99.90;;;;;;4977586;28;20188;-93
2023/08/14 09:56:18;;;;;;;5.45;1.63;;;25.20;99.90;;;;;;4979055;28;20176;-96
2023/08/14 09:58:45;;;;;;;4.38;1.65;;;25.30;99.90;;;;;;4961439;28;20259;-95
2023/08/14 10:01:12;;;;;;;4.07;1.65;;;25.20;99.90;;;;;;4961456;28;20184;-93
2023/08/14 10:03:41;;;;;;;4.32;1.70;;;25.20;99.90;;;;;;4979645;28;20200;-94
2023/08/14 10:06:15;;;;;;;3.97;1.33;;;25.20;99.90;;;;;;4980465;28;20660;-94
2023/08/14 10:08:56;;;;;;;3.25;1.60;;;25.30;99.90;;;;;;4971535;28;20274;-96
2023/08/14 10:11:27;;;;;;;2.72;1.52;;;25.30;99.90;;;;;;4980451;28;20179;-94
2023/08/14 10:13:57;;;;;;;2.78;1.50;;;25.00;99.90;;;;;;4971783;28;20192;-93
2023/08/14 10:16:31;;;;;;;4.10;1.60;;;25.00;99.90;;;;;;4962466;28;20208;-95
2023/08/14 10:19:01;;;;;;;4.40;2.00;;;24.80;99.90;;;;;;4961453;28;20193;-94
2023/08/14 10:21:31;;;;;;;4.78;2.00;;;24.70;99.90;;;;;;4961201;28;20307;-92
2023/08/14 10:23:59;;;;;;;4.85;1.92;;;24.70;99.90;;;;;;4969072;28;20288;-96
2023/08/14 10:26:36;;;;;;;3.75;1.65;;;24.60;99.90;;;;;;4980533;28;20230;-93
2023/08/14 10:29:03;;;;;;;3.03;1.98;;;24.60;99.90;;;;;;4979715;28;20310;-92
2023/08/14 10:31:30;;;;;;;3.80;1.80;;;24.70;99.90;;;;;;4983516;28;20187;-96
2023/08/14 10:33:58;;;;;;;4.88;1.70;;;24.70;99.90;;;;;;4989919;28;20185;-91
2023/08/14 10:36:31;;;;;;;3.47;1.60;;;24.90;99.90;;;;;;4960499;28;20177;-94
2023/08/14 10:39:11;;;;;;;4.03;1.77;;;24.90;99.90;;;;;;4960395;28;20173;-95
2023/08/14 10:41:37;;;;;;;3.05;1.80;;;24.90;99.90;;;;;;4960543;28;20324;-95
2023/08/14 10:44:11;;;;;;;3.47;1.80;;;24.90;99.90;;;;;;4968026;28;20279;-92
2023/08/14 10:46:42;;;;;;;5.85;2.03;;;24.90;99.90;;;;;;4960049;28;20173;-94
2023/08/14 10:49:11;;;;;;;2.72;1.77;;;24.90;99.90;;;;;;4960310;28;20323;-96
2023/08/14 10:51:43;;;;;;;2.95;1.67;;;24.90;99.90;;;;;;4959178;28;20188;-96
2023/08/14 10:54:10;;;;;;;5.07;1.90;;;25.00;99.90;;;;;;4968613;28;20199;-96
2023/08/14 10:56:57;;;;;;;3.45;1.65;;;25.00;99.90;;;;;;4989578;28;20184;-96
2023/08/14 10:59:28;;;;;;;4.22;1.92;;;25.10;99.90;;;;;;5000189;28;20176;-96
2023/08/14 11:02:26;;;;;;;4.03;1.58;;;25.40;99.90;;;;;;4994929;28;20239;-96
2023/08/14 11:05:16;;;;;;;5.80;1.60;;;25.70;99.90;;;;;;4923168;28;20207;-96
2023/08/14 11:07:41;;;;;;;4.38;1.60;;;25.80;99.90;;;;;;4964780;28;20176;-96
2023/08/14 11:12:33;;;;;;;3.88;1.65;;;26.10;99.90;;;;;;5052476;23;20262;-96
2023/08/14 11:14:58;;;;;;;4.88;2.30;;;26.20;99.90;;;;;;4981507;28;20188;-96
2023/08/14 11:17:33;;;;;;;4.95;1.77;;;26.40;99.90;;;;;;4983490;28;20184;-96
2023/08/14 11:20:00;;;;;;;3.72;1.65;;;26.50;99.90;;;;;;4983081;28;20190;-93
2023/08/14 11:22:29;;;;;;;2.75;1.83;;;26.60;99.90;;;;;;4998813;28;20207;-96
2023/08/14 11:24:54;;;;;;;3.30;1.70;;;26.60;99.90;;;;;;4984822;28;20627;-96
2023/08/14 11:27:20;;;;;;;3.92;1.70;;;26.50;99.90;;;;;;4979587;28;20184;-96
2023/08/14 11:29:49;;;;;;;4.68;1.52;;;26.30;99.90;;;;;;4978770;28;20611;-96
2023/08/14 11:32:15;;;;;;;4.85;1.75;;;26.20;99.90;;;;;;4983204;28;20192;-96
2023/08/14 11:34:43;;;;;;;4.35;1.73;;;26.00;99.90;;;;;;5014972;28;20195;-97
2023/08/14 11:37:17;;;;;;;6.35;1.70;;;25.90;99.90;;;;;;4999382;28;20176;-96
2023/08/14 11:39:44;;;;;;;4.50;1.85;;;25.90;99.90;;;;;;4981039;28;20184;-96
2023/08/14 11:42:11;;;;;;;3.22;1.70;;;25.80;99.90;;;;;;4971182;28;20214;-96
2023/08/14 11:45:24;;;;;;;5.88;1.67;;;25.80;99.90;;;;;;5002441;28;20246;-96
2023/08/14 11:48:18;;;;;;;5.55;1.88;;;25.80;99.90;;;;;;5000491;28;20253;-96
2023/08/14 11:50:47;;;;;;;5.57;1.75;;;26.10;99.90;;;;;;5000652;28;20200;-96
2023/08/14 11:53:13;;;;;;;2.40;1.50;;;26.40;99.90;;;;;;5002237;28;21010;-96
2023/08/14 11:55:39;;;;;;;3.72;1.55;;;26.80;99.90;;;;;;4998762;28;20194;-96
2023/08/14 11:58:08;;;;;;;3.67;1.90;;;27.10;99.90;;;;;;4999658;28;20206;-96
2023/08/14 12:00:34;;;;;;;3.42;1.80;;;27.00;99.90;;;;;;5000616;28;20254;-96
2023/08/14 12:03:00;;;;;;;6.20;1.77;;;27.00;99.90;;;;;;5006180;28;20587;-96
2023/08/14 12:05:26;;;;;;;3.00;1.88;;;27.00;99.90;;;;;;5006856;28;20209;-96
2023/08/14 12:08:02;;;;;;;3.10;1.85;;;26.90;99.90;;;;;;4985451;28;20179;-96
2023/08/14 12:10:32;;;;;;;3.65;1.70;;;26.80;99.90;;;;;;4993373;28;20191;-96
2023/08/14 12:13:21;;;;;;;4.32;1.70;;;26.70;99.90;;;;;;4997568;28;20164;-96
2023/08/14 12:18:23;;;;;;;3.17;1.65;;;26.70;99.90;;;;;;5004030;23;20227;-96
2023/08/14 12:20:54;;;;;;;3.55;1.75;;;26.80;99.90;;;;;;4985357;28;20655;-96
2023/08/14 12:23:24;;;;;;;7.60;2.13;;;26.80;99.90;;;;;;4987526;28;20675;-96
2023/08/14 12:25:51;;;;;;;5.82;1.50;;;26.80;99.90;;;;;;4987263;28;20179;-95
2023/08/14 12:28:21;;;;;;;5.88;1.60;;;26.90;99.90;;;;;;4987309;28;20200;-95
2023/08/14 12:30:56;;;;;;;7.30;1.85;;;27.10;99.90;;;;;;4987118;28;20233;-96
2023/08/14 12:33:34;;;;;;;2.42;1.75;;;27.50;99.90;;;;;;4986577;28;20259;-96
2023/08/14 12:35:59;;;;;;;2.92;1.67;;;27.80;99.90;;;;;;4986623;28;20171;-96
2023/08/14 12:38:26;;;;;;;3.60;1.80;;;28.00;99.90;;;;;;4985740;28;20571;-95
2023/08/14 12:40:52;;;;;;;3.63;1.83;;;28.00;99.90;;;;;;4985629;28;20639;-96
2023/08/14 12:43:19;;;;;;;3.78;1.70;;;28.00;99.90;;;;;;4987089;28;20376;-96
2023/08/14 12:45:47;;;;;;;4.72;1.60;;;28.10;99.90;;;;;;4988180;28;20167;-95
2023/08/14 12:48:13;;;;;;;4.45;1.92;;;28.10;99.90;;;;;;4988246;28;20199;-96
2023/08/14 12:50:39;;;;;;;2.03;1.73;;;28.30;99.90;;;;;;4985880;28;20178;-95
2023/08/14 12:53:09;;;;;;;2.90;1.70;;;28.50;99.90;;;;;;4984481;28;20164;-96
2023/08/14 12:55:37;;;;;;;5.32;1.90;;;28.60;99.90;;;;;;4987040;28;20175;-96
2023/08/14 12:58:10;;;;;;;3.05;1.70;;;28.70;99.90;;;;;;4988416;28;20199;-96